createdAt,value
2022-08-31T00:02:26.227Z,19.18
2022-08-31T00:05:34.047Z,19.12
2022-08-31T00:08:36.728Z,19.07
2022-08-31T00:11:42.382Z,19.01
2022-08-31T00:14:45.047Z,18.96
2022-08-31T00:17:48.949Z,18.93
2022-08-31T00:20:55.607Z,18.91
2022-08-31T00:23:59.949Z,18.86
2022-08-31T00:27:04.421Z,18.79
2022-08-31T00:30:09.497Z,18.79
2022-08-31T00:33:13.647Z,18.78
2022-08-31T00:36:23.092Z,18.76
2022-08-31T00:39:37.576Z,18.80
2022-08-31T00:42:56.977Z,18.86
2022-08-31T00:46:00.531Z,19.03
2022-08-31T00:49:19.208Z,19.08
2022-08-31T00:52:29.648Z,19.13
2022-08-31T00:55:37.125Z,19.15
2022-08-31T00:58:45.573Z,19.15
2022-08-31T01:02:01.775Z,19.09
2022-08-31T01:05:05.850Z,19.04
2022-08-31T01:08:11.840Z,18.96
2022-08-31T01:11:20.717Z,18.99
2022-08-31T01:14:25.016Z,19.01
2022-08-31T01:17:30.631Z,19.07
2022-08-31T01:20:51.420Z,19.11
2022-08-31T01:24:01.036Z,19.12
2022-08-31T01:27:07.793Z,19.14
2022-08-31T01:30:21.007Z,19.10
2022-08-31T01:33:23.944Z,19.04
2022-08-31T01:36:32.761Z,18.99
2022-08-31T01:39:35.951Z,18.95
2022-08-31T01:42:42.423Z,18.94
2022-08-31T01:45:47.470Z,18.88
2022-08-31T01:48:53.035Z,18.83
2022-08-31T01:51:56.988Z,18.77
2022-08-31T01:55:01.129Z,18.67
2022-08-31T01:58:05.328Z,18.62
2022-08-31T02:01:33.237Z,18.51
2022-08-31T02:04:29.029Z,18.42
2022-08-31T02:07:31.973Z,18.34
2022-08-31T02:10:35.787Z,18.31
2022-08-31T02:13:41.011Z,18.31
2022-08-31T02:16:44.803Z,18.28
2022-08-31T02:19:51.658Z,18.25
2022-08-31T02:22:57.220Z,18.19
2022-08-31T02:26:00.577Z,18.10
2022-08-31T02:29:03.535Z,18.01
2022-08-31T02:32:08.983Z,17.95
2022-08-31T02:35:24.145Z,17.88
2022-08-31T02:38:32.050Z,17.85
2022-08-31T02:41:39.460Z,17.80
2022-08-31T02:44:44.940Z,17.78
2022-08-31T02:47:48.083Z,17.71
2022-08-31T02:50:53.533Z,17.66
2022-08-31T02:53:56.374Z,17.61
2022-08-31T02:57:02.770Z,17.61
2022-08-31T03:00:07.731Z,17.58
2022-08-31T03:03:18.912Z,17.51
2022-08-31T03:06:23.233Z,17.51
2022-08-31T03:09:27.466Z,17.51
2022-08-31T03:12:32.643Z,17.46
2022-08-31T03:15:38.411Z,17.47
2022-08-31T03:18:45.087Z,17.50
2022-08-31T03:21:48.292Z,17.57
2022-08-31T03:25:05.424Z,17.57
2022-08-31T03:28:08.740Z,17.61
2022-08-31T03:31:14.421Z,17.61
2022-08-31T03:34:17.713Z,17.61
2022-08-31T03:37:24.344Z,17.55
2022-08-31T03:40:30.601Z,17.50
2022-08-31T03:43:34.398Z,17.43
2022-08-31T03:46:38.146Z,17.42
2022-08-31T03:49:41.630Z,17.30
2022-08-31T03:52:46.055Z,17.22
2022-08-31T03:55:49.455Z,17.22
2022-08-31T03:58:53.220Z,17.21
2022-08-31T04:02:00.004Z,17.20
2022-08-31T04:05:19.148Z,17.13
2022-08-31T04:08:34.713Z,17.11
2022-08-31T04:11:45.803Z,17.09
2022-08-31T04:15:09.409Z,17.08
2022-08-31T04:18:27.836Z,17.06
2022-08-31T04:21:31.236Z,17.06
2022-08-31T04:24:38.771Z,17.06
2022-08-31T04:27:42.860Z,17.08
2022-08-31T04:30:45.934Z,17.09
2022-08-31T04:34:00.352Z,17.17
2022-08-31T04:37:05.220Z,17.21
2022-08-31T04:40:19.044Z,17.25
2022-08-31T04:43:23.748Z,17.29
2022-08-31T04:46:28.562Z,17.38
2022-08-31T04:49:32.427Z,17.43
2022-08-31T04:52:38.496Z,17.45
2022-08-31T04:55:44.180Z,17.49
2022-08-31T04:58:51.642Z,17.58
2022-08-31T05:01:56.146Z,17.63
2022-08-31T05:05:03.213Z,17.72
2022-08-31T05:08:20.276Z,17.83
2022-08-31T05:11:48.398Z,17.91
2022-08-31T05:14:52.086Z,18.02
2022-08-31T05:17:55.955Z,18.15
2022-08-31T05:21:14.152Z,18.28
2022-08-31T05:24:40.999Z,18.49
2022-08-31T05:27:53.781Z,18.66
2022-08-31T05:30:58.022Z,18.79
2022-08-31T05:34:03.088Z,18.96
2022-08-31T05:37:06.807Z,19.08
2022-08-31T05:40:11.035Z,19.13
2022-08-31T05:43:19.862Z,19.21
2022-08-31T05:46:27.513Z,19.26
2022-08-31T05:49:33.352Z,19.37
2022-08-31T05:52:38.608Z,19.52
2022-08-31T05:55:42.948Z,19.68
2022-08-31T05:58:49.521Z,19.80
2022-08-31T06:01:56.704Z,19.96
2022-08-31T06:05:31.014Z,20.09
2022-08-31T06:08:35.827Z,20.26
2022-08-31T06:11:42.250Z,20.37
2022-08-31T06:14:51.243Z,20.53
2022-08-31T06:17:59.521Z,20.69
2022-08-31T06:21:11.034Z,20.84
2022-08-31T06:24:32.618Z,20.94
2022-08-31T06:27:39.789Z,21.10
2022-08-31T06:30:54.907Z,21.27
2022-08-31T06:34:05.350Z,21.39
2022-08-31T06:37:18.982Z,21.55
2022-08-31T06:40:27.239Z,21.70
2022-08-31T06:43:51.757Z,21.89
2022-08-31T06:47:01.423Z,22.02
2022-08-31T06:50:07.750Z,22.14
2022-08-31T06:53:10.873Z,22.30
2022-08-31T06:56:45.612Z,22.38
2022-08-31T06:59:54.947Z,22.48
2022-08-31T07:03:23.104Z,22.60
2022-08-31T07:13:59.083Z,23.24
2022-08-31T07:17:08.101Z,23.37
2022-08-31T07:20:13.738Z,23.49
2022-08-31T07:23:19.044Z,23.84
2022-08-31T07:26:27.824Z,24.12
2022-08-31T07:29:40.365Z,24.17
2022-08-31T07:32:48.975Z,24.43
2022-08-31T07:35:52.876Z,24.65
2022-08-31T07:39:14.700Z,24.49
2022-08-31T07:42:25.973Z,24.68
2022-08-31T07:45:35.812Z,24.82
2022-08-31T08:38:46.451Z,29.70
2022-08-31T08:42:13.580Z,29.40
2022-08-31T08:45:19.641Z,29.82
2022-08-31T08:48:38.168Z,30.06
2022-08-31T08:51:43.227Z,30.35
2022-08-31T08:54:51.216Z,30.33
2022-08-31T08:57:57.556Z,30.50
2022-08-31T09:01:31.247Z,30.97
2022-08-31T09:05:06.097Z,30.95
2022-08-31T09:08:46.402Z,31.06
2022-08-31T09:20:00.452Z,32.73
2022-08-31T09:23:08.592Z,32.27
2022-08-31T09:27:07.544Z,32.73
2022-08-31T09:33:51.498Z,32.76
2022-08-31T09:37:16.789Z,33.50
2022-08-31T09:40:59.462Z,33.19
2022-08-31T09:44:35.373Z,33.28
2022-08-31T09:47:53.674Z,34.11
2022-08-31T09:51:06.293Z,33.60
2022-08-31T09:54:36.945Z,34.02
2022-08-31T10:01:51.561Z,34.15
2022-08-31T10:05:11.957Z,34.03
2022-08-31T10:08:49.899Z,34.92
2022-08-31T10:12:20.262Z,35.01
2022-08-31T10:15:43.971Z,34.95
2022-08-31T10:19:02.189Z,34.46
2022-08-31T10:22:31.225Z,33.44
2022-08-31T10:25:48.820Z,32.95
2022-08-31T10:29:35.691Z,32.85
2022-08-31T10:32:55.675Z,33.55
2022-08-31T10:36:01.603Z,33.94
2022-08-31T10:39:33.809Z,34.01
2022-08-31T10:42:43.084Z,34.50
2022-08-31T10:45:53.278Z,34.85
2022-08-31T10:48:59.681Z,35.37
2022-08-31T10:52:17.349Z,35.03
2022-08-31T10:55:29.833Z,33.96
2022-08-31T10:58:46.538Z,35.40
2022-08-31T11:02:43.972Z,34.84
2022-08-31T11:05:50.945Z,34.33
2022-08-31T11:09:03.459Z,34.63
2022-08-31T11:12:27.774Z,35.60
2022-08-31T11:23:48.053Z,36.11
2022-08-31T11:27:19.128Z,35.82
2022-08-31T11:30:29.193Z,36.46
2022-08-31T11:33:51.017Z,36.14
2022-08-31T11:37:08.801Z,36.41
2022-08-31T11:41:01.742Z,36.90
2022-08-31T11:44:56.198Z,37.48
2022-08-31T11:48:07.719Z,37.62
2022-08-31T11:58:42.573Z,38.52
2022-08-31T12:01:48.330Z,38.16
2022-08-31T12:05:02.674Z,36.41
2022-08-31T12:12:28.222Z,36.29
2022-08-31T12:16:19.357Z,36.45
2022-08-31T12:19:51.924Z,36.49
2022-08-31T12:27:17.603Z,36.48
2022-08-31T13:59:46.173Z,30.50
2022-08-31T14:06:45.853Z,30.51
2022-08-31T15:03:05.367Z,30.48
2022-08-31T15:06:13.921Z,30.29
2022-08-31T15:09:17.759Z,30.22
2022-08-31T15:15:55.904Z,29.64
2022-08-31T15:19:12.234Z,29.45
2022-08-31T15:30:16.788Z,28.97
2022-08-31T15:33:25.518Z,28.81
2022-08-31T16:09:44.880Z,27.61
2022-08-31T16:12:52.735Z,27.57
2022-08-31T16:16:01.076Z,27.37
2022-08-31T17:25:03.179Z,26.03
2022-08-31T17:28:10.997Z,25.94
2022-08-31T17:31:15.330Z,25.91
2022-08-31T17:34:44.139Z,25.87
2022-08-31T17:38:15.616Z,25.70
2022-08-31T17:41:18.872Z,25.63
2022-08-31T17:44:35.868Z,25.55
2022-08-31T17:47:39.668Z,25.38
2022-08-31T17:50:45.387Z,25.35
2022-08-31T17:53:57.385Z,25.36
2022-08-31T17:57:02.832Z,25.37
2022-08-31T18:00:06.880Z,25.30
2022-08-31T18:03:23.970Z,25.31
2022-08-31T18:06:31.344Z,25.28
2022-08-31T18:09:39.526Z,25.27
2022-08-31T18:12:46.619Z,25.18
2022-08-31T18:15:51.509Z,25.17
2022-08-31T18:19:11.217Z,25.18
2022-08-31T18:22:15.285Z,25.11
2022-08-31T18:25:19.163Z,25.10
2022-08-31T18:28:37.682Z,25.06
2022-08-31T18:31:46.256Z,24.97
2022-08-31T18:34:54.078Z,24.94
2022-08-31T18:38:15.792Z,24.95
2022-08-31T18:41:42.817Z,24.87
2022-08-31T18:45:16.895Z,24.82
2022-08-31T18:48:26.292Z,24.68
2022-08-31T18:51:37.006Z,24.63
2022-08-31T18:54:40.490Z,24.56
2022-08-31T18:57:49.053Z,24.50
2022-08-31T19:00:57.753Z,24.47
2022-08-31T19:04:03.606Z,24.38
2022-08-31T19:07:06.901Z,24.35
2022-08-31T19:10:14.244Z,24.28
2022-08-31T19:13:18.338Z,24.28
2022-08-31T19:16:25.361Z,24.15
2022-08-31T19:19:29.312Z,24.10
2022-08-31T19:22:35.962Z,24.09
2022-08-31T19:25:43.790Z,23.98
2022-08-31T19:28:50.926Z,23.89
2022-08-31T19:31:56.252Z,23.82
2022-08-31T19:35:07.783Z,23.77
2022-08-31T19:38:25.255Z,23.70
2022-08-31T19:41:31.408Z,23.61
2022-08-31T19:48:04.808Z,23.44
2022-08-31T19:51:08.563Z,23.31
2022-08-31T19:54:13.342Z,23.09
2022-08-31T19:57:16.817Z,22.96
2022-08-31T20:00:20.884Z,22.96
2022-08-31T20:03:38.559Z,22.75
2022-08-31T20:06:42.193Z,22.66
2022-08-31T20:09:45.316Z,22.61
2022-08-31T20:12:47.838Z,22.56
2022-08-31T20:15:53.463Z,22.50
2022-08-31T20:19:20.827Z,22.50
2022-08-31T20:22:29.833Z,22.40
2022-08-31T20:25:37.785Z,22.30
2022-08-31T20:28:43.408Z,22.29
2022-08-31T20:31:52.760Z,22.27
2022-08-31T20:34:57.024Z,22.18
2022-08-31T20:38:01.860Z,22.12
2022-08-31T20:41:11.564Z,22.09
2022-08-31T20:44:16.421Z,21.99
2022-08-31T20:47:38.096Z,21.98
2022-08-31T20:50:42.848Z,21.93
2022-08-31T20:54:11.110Z,21.85
2022-08-31T20:57:41.156Z,21.81
2022-08-31T21:00:47.935Z,21.76
2022-08-31T21:03:54.242Z,21.71
2022-08-31T21:07:23.332Z,21.71
2022-08-31T21:10:37.396Z,21.68
2022-08-31T21:14:00.512Z,21.68
2022-08-31T21:17:06.348Z,21.61
2022-08-31T21:24:24.815Z,21.63
2022-08-31T21:27:40.908Z,21.54
2022-08-31T21:30:50.559Z,21.49
2022-08-31T21:34:01.028Z,21.55
2022-08-31T21:37:10.203Z,21.53
2022-08-31T21:40:20.760Z,21.49
2022-08-31T21:43:33.816Z,21.53
2022-08-31T21:46:38.465Z,21.49
2022-08-31T21:49:44.012Z,21.51
2022-08-31T21:52:51.701Z,21.53
2022-08-31T21:55:56.197Z,21.51
2022-08-31T21:59:02.111Z,21.54
2022-08-31T22:02:09.498Z,21.54
2022-08-31T22:05:15.751Z,21.44
2022-08-31T22:08:26.415Z,21.48
2022-08-31T22:11:33.065Z,21.40
2022-08-31T22:14:40.042Z,21.35
2022-08-31T22:18:11.467Z,21.38
2022-08-31T22:21:16.929Z,21.36
2022-08-31T22:24:34.360Z,21.32
2022-08-31T22:27:48.236Z,21.28
2022-08-31T22:30:56.552Z,21.19
2022-08-31T22:34:08.434Z,20.94
2022-08-31T22:37:14.541Z,20.56
2022-08-31T22:40:21.297Z,20.15
2022-08-31T22:43:25.894Z,19.82
2022-08-31T22:46:28.726Z,19.63
2022-08-31T22:49:34.656Z,19.44
2022-08-31T22:52:55.434Z,19.47
2022-08-31T22:56:11.364Z,19.43
2022-08-31T22:59:30.572Z,19.43
2022-08-31T23:02:45.578Z,19.53
2022-08-31T23:05:51.763Z,19.53
2022-08-31T23:08:58.027Z,19.43
2022-08-31T23:12:05.301Z,19.34
2022-08-31T23:15:15.157Z,19.31
2022-08-31T23:18:21.232Z,19.27
2022-08-31T23:21:29.517Z,19.19
2022-08-31T23:24:41.576Z,19.01
2022-08-31T23:27:49.903Z,18.64
2022-08-31T23:31:05.251Z,18.39
2022-08-31T23:34:22.655Z,18.09
2022-08-31T23:37:39.653Z,17.87
2022-08-31T23:40:58.874Z,17.75
2022-08-31T23:44:16.214Z,17.57
2022-08-31T23:47:30.805Z,17.37
2022-08-31T23:50:33.746Z,17.34
2022-08-31T23:53:57.161Z,17.25
2022-08-31T23:57:02.787Z,17.15
